Time;durP1;ratioP1;P1;durP2;ratioP2;P2;SDS_P1;SDS_P2;PMS_P1;PMS_P2;Temp;Humidity;BMP_temperature;BMP_pressure;BME280_temperature;BME280_humidity;BME280_pressure;Samples;Min_cycle;Max_cycle;Signal;HPM_P1;HPM_P2
2022/03/28 00:01:29;;;;;;;35.55;8.88;;;6.50;99.90;;;;;;5018470;28;20086;-85
2022/03/28 00:03:55;;;;;;;47.78;10.98;;;6.50;99.90;;;;;;5032877;28;20432;-85
2022/03/28 00:06:21;;;;;;;32.25;10.52;;;6.50;99.90;;;;;;5018114;28;20407;-86
2022/03/28 00:08:47;;;;;;;23.98;10.75;;;6.50;99.90;;;;;;5018205;28;20394;-85
2022/03/28 00:11:13;;;;;;;23.38;10.30;;;6.50;99.90;;;;;;5017125;28;20040;-86
2022/03/28 00:13:39;;;;;;;32.13;12.25;;;6.60;99.90;;;;;;5023965;28;20036;-86
2022/03/28 00:16:05;;;;;;;37.85;14.18;;;6.60;99.90;;;;;;5001116;28;20132;-87
2022/03/28 00:18:30;;;;;;;78.88;15.07;;;6.60;99.90;;;;;;4985467;28;20402;-86
2022/03/28 00:20:56;;;;;;;33.15;15.75;;;6.60;99.90;;;;;;5030087;28;20101;-86
2022/03/28 00:23:22;;;;;;;59.22;15.65;;;6.70;99.90;;;;;;4995351;28;20048;-87
2022/03/28 00:25:49;;;;;;;38.42;15.13;;;6.60;99.90;;;;;;5010563;28;20041;-85
2022/03/28 00:28:15;;;;;;;37.97;15.55;;;6.70;99.90;;;;;;5017699;28;20110;-85
2022/03/28 00:30:41;;;;;;;34.25;15.20;;;6.60;99.90;;;;;;5017432;28;20061;-85
2022/03/28 00:33:07;;;;;;;36.65;15.30;;;6.60;99.90;;;;;;5016662;28;20498;-84
2022/03/28 00:35:35;;;;;;;41.30;14.88;;;6.60;99.90;;;;;;5034126;28;20095;-85
2022/03/28 00:38:03;;;;;;;63.30;15.98;;;6.60;99.90;;;;;;5017486;28;20444;-85
2022/03/28 00:40:31;;;;;;;32.92;14.73;;;6.50;99.90;;;;;;5018158;28;20123;-84
2022/03/28 00:42:58;;;;;;;34.30;15.50;;;6.60;99.90;;;;;;5033040;28;20149;-86
2022/03/28 00:45:25;;;;;;;33.42;16.67;;;6.60;99.90;;;;;;5031305;28;20041;-84
2022/03/28 00:47:51;;;;;;;37.53;16.65;;;6.60;99.90;;;;;;5033943;28;20478;-85
2022/03/28 00:50:16;;;;;;;33.63;15.90;;;6.70;99.90;;;;;;5029137;28;20176;-85
2022/03/28 00:52:42;;;;;;;34.33;15.25;;;6.60;99.90;;;;;;5033830;28;20520;-85
2022/03/28 00:55:09;;;;;;;38.67;14.95;;;6.60;99.90;;;;;;5016869;28;20405;-85
2022/03/28 00:57:35;;;;;;;56.22;14.52;;;6.60;99.90;;;;;;5014456;28;20068;-85
2022/03/28 01:00:05;;;;;;;45.78;17.48;;;6.60;99.90;;;;;;5032835;28;20099;-86
2022/03/28 01:02:31;;;;;;;68.18;18.58;;;6.50;99.90;;;;;;5033771;28;20032;-84
2022/03/28 01:04:57;;;;;;;53.28;17.52;;;6.50;99.90;;;;;;5032369;28;20132;-87
2022/03/28 01:07:26;;;;;;;41.67;17.02;;;6.50;99.90;;;;;;5001124;28;20057;-85
2022/03/28 01:09:54;;;;;;;41.20;17.70;;;6.50;99.90;;;;;;5000999;28;20087;-85
2022/03/28 01:12:20;;;;;;;42.28;19.40;;;6.60;99.90;;;;;;5011734;28;20042;-85
2022/03/28 01:14:47;;;;;;;55.92;23.92;;;6.60;99.90;;;;;;5003995;28;20115;-86
2022/03/28 01:19:57;;;;;;;66.75;25.45;;;6.60;99.90;;;;;;5047339;28;20056;-86
2022/03/28 01:22:23;;;;;;;66.32;26.40;;;6.70;99.90;;;;;;5016397;28;20044;-85
2022/03/28 01:24:48;;;;;;;65.45;25.52;;;6.60;99.90;;;;;;5040065;28;20518;-85
2022/03/28 01:27:15;;;;;;;83.97;26.08;;;6.60;99.90;;;;;;5028292;28;20044;-85
2022/03/28 01:29:44;;;;;;;73.55;24.33;;;6.60;99.90;;;;;;5036159;28;20044;-86
2022/03/28 01:32:11;;;;;;;64.75;24.67;;;6.60;99.90;;;;;;5029617;28;20474;-86
2022/03/28 01:34:38;;;;;;;64.68;22.67;;;6.50;99.90;;;;;;5014041;28;20048;-84
2022/03/28 01:37:04;;;;;;;68.05;23.80;;;6.60;99.90;;;;;;5029696;28;20073;-84
2022/03/28 01:39:31;;;;;;;39.65;19.58;;;6.50;99.90;;;;;;5016673;28;20387;-84
2022/03/28 01:41:57;;;;;;;48.88;19.90;;;6.60;99.90;;;;;;5034623;28;20494;-85
2022/03/28 01:44:23;;;;;;;39.60;20.23;;;6.60;99.90;;;;;;5023159;28;20051;-85
2022/03/28 01:46:49;;;;;;;40.28;19.35;;;6.50;99.90;;;;;;5027566;28;20041;-85
2022/03/28 01:49:17;;;;;;;37.65;19.13;;;6.50;99.90;;;;;;5000139;28;20053;-86
2022/03/28 01:51:43;;;;;;;54.45;19.70;;;6.60;99.90;;;;;;5032757;28;20044;-85
2022/03/28 01:54:09;;;;;;;43.50;19.30;;;6.50;99.90;;;;;;5033276;28;20045;-84
2022/03/28 01:56:36;;;;;;;43.47;18.20;;;6.50;99.90;;;;;;5033064;28;20103;-84
2022/03/28 01:59:02;;;;;;;30.13;16.80;;;6.60;99.90;;;;;;5016377;28;20049;-84
2022/03/28 02:01:28;;;;;;;32.67;17.23;;;6.50;99.90;;;;;;5016938;28;20497;-84
2022/03/28 02:03:53;;;;;;;32.25;16.63;;;6.50;99.90;;;;;;4996639;28;20038;-84
2022/03/28 02:06:19;;;;;;;34.95;16.70;;;6.50;99.90;;;;;;5022194;28;20050;-84
2022/03/28 02:08:45;;;;;;;30.40;16.20;;;6.50;99.90;;;;;;5012754;28;20049;-85
2022/03/28 02:11:11;;;;;;;28.10;15.90;;;6.50;99.90;;;;;;5015916;28;20072;-85
2022/03/28 02:13:36;;;;;;;31.45;16.15;;;6.50;99.90;;;;;;5033486;28;20124;-85
2022/03/28 02:16:03;;;;;;;28.00;15.98;;;6.50;99.90;;;;;;5033075;28;20468;-85
2022/03/28 02:18:28;;;;;;;34.90;16.55;;;6.60;99.90;;;;;;5026779;28;20068;-84
2022/03/28 02:20:54;;;;;;;29.42;15.85;;;6.60;99.90;;;;;;5017539;28;20088;-85
2022/03/28 02:23:21;;;;;;;32.15;16.02;;;6.60;99.90;;;;;;5032551;28;20064;-85
2022/03/28 02:25:47;;;;;;;31.83;16.20;;;6.50;99.90;;;;;;5028476;28;20099;-85
2022/03/28 02:28:13;;;;;;;29.08;17.15;;;6.60;99.90;;;;;;5010772;28;20670;-86
2022/03/28 02:30:39;;;;;;;27.15;15.43;;;6.60;99.90;;;;;;5020066;28;20162;-84
2022/03/28 02:33:05;;;;;;;32.33;16.17;;;6.60;99.90;;;;;;5035226;28;20068;-87
2022/03/28 02:35:31;;;;;;;28.88;15.55;;;6.60;99.90;;;;;;5026937;28;20123;-86
2022/03/28 02:38:01;;;;;;;31.88;15.65;;;6.60;99.90;;;;;;5031986;28;20044;-84
2022/03/28 02:40:28;;;;;;;25.13;14.45;;;6.60;99.90;;;;;;5014986;28;20041;-84
2022/03/28 02:42:57;;;;;;;26.95;14.38;;;6.50;99.90;;;;;;5034085;28;20052;-84
2022/03/28 02:45:23;;;;;;;29.77;15.40;;;6.50;99.90;;;;;;5021156;28;20072;-84
2022/03/28 02:47:49;;;;;;;26.35;13.93;;;6.60;99.90;;;;;;5029402;28;20056;-84
2022/03/28 02:50:15;;;;;;;24.42;14.02;;;6.50;99.90;;;;;;5045283;28;20048;-85
2022/03/28 02:52:40;;;;;;;24.60;13.63;;;6.40;99.90;;;;;;5023328;28;20056;-85
2022/03/28 02:55:07;;;;;;;27.83;14.20;;;6.40;99.90;;;;;;5020140;28;20045;-85
2022/03/28 02:57:34;;;;;;;25.70;14.00;;;6.40;99.90;;;;;;5020249;28;20073;-85
2022/03/28 03:00:00;;;;;;;26.83;14.23;;;6.40;99.90;;;;;;5019909;28;20068;-86
2022/03/28 03:02:26;;;;;;;26.83;14.32;;;6.30;99.90;;;;;;5034678;28;20040;-85
2022/03/28 03:04:51;;;;;;;29.70;15.73;;;6.30;99.90;;;;;;5034948;28;20158;-85
2022/03/28 03:07:18;;;;;;;29.83;15.98;;;6.30;99.90;;;;;;5002153;28;20409;-85
2022/03/28 03:09:44;;;;;;;32.20;15.88;;;6.30;99.90;;;;;;5017894;28;20049;-85
2022/03/28 03:12:10;;;;;;;26.77;14.45;;;6.20;99.90;;;;;;5018313;28;20040;-88
2022/03/28 03:14:36;;;;;;;25.20;14.35;;;6.20;99.90;;;;;;5035378;28;20045;-87
2022/03/28 03:17:02;;;;;;;26.05;14.40;;;6.10;99.90;;;;;;5001555;28;20060;-86
2022/03/28 03:19:28;;;;;;;28.25;15.00;;;6.10;99.90;;;;;;5019118;28;20041;-85
2022/03/28 03:21:54;;;;;;;27.00;14.65;;;6.10;99.90;;;;;;4986696;28;20091;-86
2022/03/28 03:24:20;;;;;;;28.92;16.02;;;6.10;99.90;;;;;;5018072;28;20537;-85
2022/03/28 03:26:46;;;;;;;29.48;16.58;;;6.10;99.90;;;;;;5018997;28;20045;-85
2022/03/28 03:29:12;;;;;;;30.30;17.17;;;6.10;99.90;;;;;;5019358;28;20048;-88
2022/03/28 03:31:39;;;;;;;31.70;17.40;;;6.10;99.90;;;;;;5013549;28;20053;-86
2022/03/28 03:34:06;;;;;;;33.20;17.80;;;6.20;99.90;;;;;;5035439;28;20139;-85
2022/03/28 03:36:32;;;;;;;30.45;17.30;;;6.20;99.90;;;;;;5035158;28;20370;-87
2022/03/28 03:38:58;;;;;;;32.30;17.48;;;6.10;99.90;;;;;;5002477;28;20052;-85
2022/03/28 03:41:24;;;;;;;38.65;19.27;;;6.10;99.90;;;;;;5050167;28;20094;-86
2022/03/28 03:43:50;;;;;;;31.48;17.42;;;6.10;99.90;;;;;;5016543;28;20049;-87
2022/03/28 03:46:15;;;;;;;32.65;19.55;;;6.10;99.90;;;;;;5033447;28;20713;-87
2022/03/28 03:48:41;;;;;;;36.83;19.70;;;6.10;99.90;;;;;;5001541;28;20106;-86
2022/03/28 03:51:07;;;;;;;37.65;20.20;;;6.10;99.90;;;;;;5017923;28;20084;-85
2022/03/28 03:53:33;;;;;;;40.78;21.95;;;6.10;99.90;;;;;;5002244;28;20123;-85
2022/03/28 03:55:59;;;;;;;41.10;22.15;;;6.00;99.90;;;;;;5050780;28;20125;-85
2022/03/28 03:58:26;;;;;;;42.70;21.25;;;6.10;99.90;;;;;;5017412;28;20053;-85
2022/03/28 04:00:52;;;;;;;39.33;21.33;;;6.10;99.90;;;;;;5016510;28;20146;-85
2022/03/28 04:03:17;;;;;;;45.58;22.83;;;6.10;99.90;;;;;;5032129;28;20052;-87
2022/03/28 04:05:43;;;;;;;41.95;22.75;;;6.00;99.90;;;;;;5017686;28;20041;-85
2022/03/28 04:08:09;;;;;;;42.05;22.02;;;6.00;99.90;;;;;;5017373;28;20447;-85
2022/03/28 04:10:35;;;;;;;38.40;21.30;;;6.10;99.90;;;;;;5033513;28;20051;-85
2022/03/28 04:13:02;;;;;;;37.45;20.67;;;6.00;99.90;;;;;;5027932;28;20059;-86
2022/03/28 04:15:28;;;;;;;36.95;20.20;;;6.10;99.90;;;;;;5028440;28;20045;-84
2022/03/28 04:17:54;;;;;;;35.92;19.05;;;6.00;99.90;;;;;;5051023;28;20071;-84
2022/03/28 04:20:20;;;;;;;31.33;17.58;;;6.00;99.90;;;;;;5017043;28;20048;-85
2022/03/28 04:22:46;;;;;;;31.63;18.35;;;6.00;99.90;;;;;;5016999;28;20102;-85
2022/03/28 04:25:13;;;;;;;30.58;16.73;;;6.00;99.90;;;;;;5013923;28;20464;-85
2022/03/28 04:27:40;;;;;;;32.40;17.45;;;5.90;99.90;;;;;;5032096;28;20111;-85
2022/03/28 04:30:08;;;;;;;31.27;15.73;;;6.00;99.90;;;;;;5033420;28;20068;-84
2022/03/28 04:32:34;;;;;;;29.40;15.18;;;5.90;99.90;;;;;;5013904;28;20087;-84
2022/03/28 04:35:01;;;;;;;28.73;15.10;;;5.80;99.90;;;;;;5000540;28;20057;-85
2022/03/28 04:37:31;;;;;;;27.70;15.05;;;5.80;99.90;;;;;;5022362;28;20105;-84
2022/03/28 04:39:57;;;;;;;28.10;15.60;;;5.80;99.90;;;;;;5033203;28;20494;-85
2022/03/28 04:42:22;;;;;;;24.65;14.25;;;5.80;99.90;;;;;;5032693;28;20047;-85
2022/03/28 04:44:48;;;;;;;26.63;15.07;;;5.80;99.90;;;;;;5033159;28;20049;-84
2022/03/28 04:47:14;;;;;;;27.83;13.82;;;5.80;99.90;;;;;;5016613;28;20043;-85
2022/03/28 04:49:39;;;;;;;28.25;15.02;;;5.90;99.90;;;;;;5017298;28;20219;-85
2022/03/28 04:52:05;;;;;;;27.83;14.02;;;5.90;99.90;;;;;;5017718;28;20045;-85
2022/03/28 04:54:31;;;;;;;28.65;13.80;;;5.80;99.90;;;;;;5016897;28;20049;-85
2022/03/28 04:56:56;;;;;;;33.65;13.00;;;5.70;99.90;;;;;;4999856;28;20505;-86
2022/03/28 04:59:22;;;;;;;28.85;13.10;;;5.80;99.90;;;;;;5000880;28;20041;-86
2022/03/28 05:01:48;;;;;;;25.67;12.35;;;5.70;99.90;;;;;;5033649;28;20066;-86
2022/03/28 05:04:13;;;;;;;23.73;11.23;;;5.70;99.90;;;;;;5017116;28;20063;-86
2022/03/28 05:06:39;;;;;;;22.30;11.30;;;5.70;99.90;;;;;;5015786;28;20121;-85
2022/03/28 05:09:05;;;;;;;21.90;11.52;;;5.80;99.90;;;;;;5013625;28;20041;-85
2022/03/28 05:11:30;;;;;;;26.58;11.43;;;5.70;99.90;;;;;;5000758;28;20132;-84
2022/03/28 05:14:04;;;;;;;27.40;11.45;;;5.70;99.90;;;;;;5015701;28;20064;-86
2022/03/28 05:16:30;;;;;;;26.52;11.50;;;5.70;99.90;;;;;;4998246;28;20056;-86
2022/03/28 05:18:55;;;;;;;25.85;10.18;;;5.70;99.90;;;;;;5014898;28;20036;-86
2022/03/28 05:21:21;;;;;;;23.50;9.77;;;5.70;99.90;;;;;;5016401;28;20524;-87
2022/03/28 05:23:47;;;;;;;22.25;10.02;;;5.70;99.90;;;;;;5033002;28;20032;-85
2022/03/28 05:26:12;;;;;;;16.10;6.85;;;5.70;99.90;;;;;;5033705;28;20498;-85
2022/03/28 05:28:38;;;;;;;11.98;5.93;;;5.70;99.90;;;;;;5013245;28;20040;-85
2022/03/28 05:31:04;;;;;;;12.85;6.53;;;5.60;99.90;;;;;;5016286;28;20064;-85
2022/03/28 05:33:31;;;;;;;10.88;5.10;;;5.70;99.90;;;;;;5016561;28;20048;-85
2022/03/28 05:35:57;;;;;;;13.00;5.22;;;5.60;99.90;;;;;;5033199;28;20045;-84
2022/03/28 05:38:23;;;;;;;12.05;6.00;;;5.60;99.90;;;;;;5032488;28;20040;-87
2022/03/28 05:40:49;;;;;;;10.32;5.30;;;5.60;99.90;;;;;;5031196;28;20045;-84
2022/03/28 05:43:17;;;;;;;9.00;5.10;;;5.60;99.90;;;;;;5016683;28;20049;-84
2022/03/28 05:45:43;;;;;;;11.00;5.03;;;5.40;99.90;;;;;;5016085;28;20049;-84
2022/03/28 05:48:09;;;;;;;9.05;4.50;;;5.50;99.90;;;;;;4999454;28;20055;-84
2022/03/28 05:50:34;;;;;;;11.05;5.00;;;5.60;99.90;;;;;;5015082;28;20502;-85
2022/03/28 05:53:00;;;;;;;7.32;3.95;;;5.60;99.90;;;;;;5017238;28;20053;-85
2022/03/28 05:55:26;;;;;;;8.35;4.25;;;5.60;99.90;;;;;;5033829;28;20139;-86
2022/03/28 05:57:52;;;;;;;6.90;3.85;;;5.60;99.90;;;;;;5000431;28;20051;-85
2022/03/28 06:00:18;;;;;;;8.05;4.43;;;5.60;99.90;;;;;;5014588;28;20477;-85
2022/03/28 06:02:44;;;;;;;8.98;4.05;;;5.60;99.90;;;;;;5032458;28;20037;-84
2022/03/28 06:05:12;;;;;;;9.25;4.40;;;5.70;99.90;;;;;;5010162;28;20048;-83
2022/03/28 06:07:38;;;;;;;8.40;4.32;;;5.70;99.90;;;;;;4997316;28;20049;-85
2022/03/28 06:10:04;;;;;;;11.23;5.53;;;5.70;99.90;;;;;;5028616;28;20044;-84
2022/03/28 06:12:30;;;;;;;15.25;5.88;;;5.70;99.90;;;;;;4997567;28;20428;-84
2022/03/28 06:14:56;;;;;;;11.75;5.20;;;5.70;99.90;;;;;;5019298;28;20047;-84
2022/03/28 06:17:26;;;;;;;11.02;5.05;;;5.60;99.90;;;;;;5036748;28;20053;-85
2022/03/28 06:19:55;;;;;;;12.93;6.07;;;5.60;99.90;;;;;;5032474;28;20065;-83
2022/03/28 06:22:21;;;;;;;12.32;6.07;;;5.70;99.90;;;;;;5042596;28;20044;-85
2022/03/28 06:24:47;;;;;;;16.77;6.85;;;5.60;99.90;;;;;;5001338;28;20123;-85
2022/03/28 06:27:13;;;;;;;15.52;7.45;;;5.60;99.90;;;;;;5018649;28;20048;-86
2022/03/28 06:29:38;;;;;;;16.50;7.22;;;5.70;99.90;;;;;;5018958;28;20103;-86
2022/03/28 06:32:05;;;;;;;15.45;6.57;;;5.70;99.90;;;;;;5019741;28;20106;-87
2022/03/28 06:34:31;;;;;;;20.35;8.13;;;5.70;99.90;;;;;;5026966;28;20391;-88
2022/03/28 06:36:57;;;;;;;16.50;8.25;;;5.70;99.90;;;;;;5034723;28;20049;-90
2022/03/28 06:39:43;;;;;;;19.00;8.38;;;5.70;99.90;;;;;;5019194;28;20413;-88
2022/03/28 06:42:12;;;;;;;17.42;8.05;;;5.80;99.90;;;;;;5027803;28;20055;-88
2022/03/28 06:44:38;;;;;;;19.70;8.98;;;5.80;99.90;;;;;;5023102;28;20072;-89
2022/03/28 06:47:22;;;;;;;20.35;9.35;;;5.80;99.90;;;;;;5021046;28;20056;-90
2022/03/28 06:49:50;;;;;;;20.40;9.05;;;5.90;99.90;;;;;;5040249;28;20047;-89
2022/03/28 06:52:18;;;;;;;22.45;9.18;;;5.90;99.90;;;;;;5036566;28;20610;-87
2022/03/28 06:54:44;;;;;;;20.48;8.88;;;5.90;99.90;;;;;;5040449;28;20048;-83
2022/03/28 06:57:10;;;;;;;23.30;9.45;;;5.90;99.90;;;;;;5017174;28;20125;-83
2022/03/28 06:59:41;;;;;;;24.05;10.52;;;5.90;99.90;;;;;;5034409;28;20124;-86
2022/03/28 07:02:07;;;;;;;27.02;11.02;;;5.80;99.90;;;;;;5033878;28;20053;-81
2022/03/28 07:04:32;;;;;;;28.48;11.13;;;6.00;99.90;;;;;;5013826;28;20048;-81
2022/03/28 07:06:58;;;;;;;28.58;11.80;;;6.00;99.90;;;;;;5033633;28;20490;-82
2022/03/28 07:09:24;;;;;;;30.13;11.77;;;6.10;99.90;;;;;;5018143;28;20091;-82
2022/03/28 07:11:50;;;;;;;35.50;12.05;;;6.00;99.90;;;;;;5033774;28;20041;-83
2022/03/28 07:14:16;;;;;;;35.90;12.70;;;6.10;99.90;;;;;;5018073;28;20051;-82
2022/03/28 07:16:43;;;;;;;31.08;12.50;;;6.10;99.90;;;;;;4999322;28;20052;-86
2022/03/28 07:19:08;;;;;;;29.63;12.85;;;6.10;99.90;;;;;;5034410;28;20056;-81
2022/03/28 07:21:34;;;;;;;32.50;12.52;;;6.20;99.90;;;;;;5017440;28;20394;-86
2022/03/28 07:24:00;;;;;;;36.67;13.60;;;6.20;99.90;;;;;;5016844;28;20102;-85
2022/03/28 07:26:27;;;;;;;35.05;13.45;;;6.20;99.90;;;;;;5001350;28;20066;-83
2022/03/28 07:28:55;;;;;;;34.10;13.98;;;6.30;99.90;;;;;;5012848;28;20055;-82
2022/03/28 07:31:21;;;;;;;30.70;12.77;;;6.30;99.90;;;;;;5028985;28;20061;-82
2022/03/28 07:33:47;;;;;;;28.90;12.45;;;6.30;99.90;;;;;;4999235;28;20067;-82
2022/03/28 07:36:15;;;;;;;29.65;12.57;;;6.40;99.90;;;;;;5020824;28;20040;-82
2022/03/28 07:38:41;;;;;;;28.45;12.73;;;6.40;99.90;;;;;;5028436;28;20445;-83
2022/03/28 07:41:07;;;;;;;31.15;13.20;;;6.40;99.90;;;;;;5027727;28;20053;-81
2022/03/28 07:43:32;;;;;;;33.05;13.45;;;6.50;99.90;;;;;;5008204;28;20033;-83
2022/03/28 07:45:58;;;;;;;27.27;12.48;;;6.60;99.90;;;;;;5001739;28;20067;-83
2022/03/28 07:48:24;;;;;;;25.42;12.32;;;6.60;99.90;;;;;;5028521;28;20049;-82
2022/03/28 07:50:50;;;;;;;24.80;11.05;;;6.70;99.90;;;;;;5026113;28;20042;-82
2022/03/28 07:53:16;;;;;;;26.35;11.45;;;6.80;99.90;;;;;;4986029;28;20049;-82
2022/03/28 07:55:42;;;;;;;24.13;12.10;;;6.80;99.90;;;;;;5010614;28;20164;-84
2022/03/28 07:58:09;;;;;;;28.25;12.82;;;6.80;99.90;;;;;;4990139;28;20124;-82
2022/03/28 08:00:37;;;;;;;23.52;11.38;;;6.80;99.90;;;;;;5025450;28;20399;-85
2022/03/28 08:03:04;;;;;;;26.35;11.77;;;6.80;99.90;;;;;;5027457;28;20209;-83
2022/03/28 08:05:30;;;;;;;21.73;11.25;;;6.80;99.90;;;;;;5013392;28;20056;-85
2022/03/28 08:07:56;;;;;;;25.88;11.60;;;6.90;99.90;;;;;;5010129;28;20062;-82
2022/03/28 08:10:24;;;;;;;24.50;11.18;;;6.90;99.90;;;;;;4989876;28;20049;-83
2022/03/28 08:12:51;;;;;;;25.73;11.90;;;7.00;99.90;;;;;;5026785;28;20053;-83
2022/03/28 08:15:18;;;;;;;25.23;12.23;;;7.20;99.90;;;;;;5014742;28;20037;-84
2022/03/28 08:17:44;;;;;;;28.83;12.95;;;7.20;99.90;;;;;;5023740;28;20050;-83
2022/03/28 08:20:12;;;;;;;28.55;13.27;;;7.40;99.90;;;;;;5013303;28;20380;-84
2022/03/28 08:22:40;;;;;;;24.13;12.45;;;7.50;99.90;;;;;;5013175;28;20060;-86
2022/03/28 08:25:07;;;;;;;25.42;12.68;;;7.50;99.90;;;;;;5012876;28;20045;-83
2022/03/28 08:27:34;;;;;;;26.85;13.38;;;7.60;99.90;;;;;;5030160;28;20049;-82
2022/03/28 08:29:59;;;;;;;26.02;13.52;;;7.60;99.90;;;;;;5017269;28;20044;-82
2022/03/28 08:32:25;;;;;;;24.15;12.90;;;7.70;99.90;;;;;;4993686;28;20066;-83
2022/03/28 08:34:51;;;;;;;25.30;13.90;;;7.70;99.90;;;;;;4993568;28;20049;-82
2022/03/28 08:37:17;;;;;;;28.25;13.75;;;7.70;99.90;;;;;;4994004;28;20077;-82
2022/03/28 08:39:44;;;;;;;26.80;14.15;;;7.80;99.90;;;;;;4977295;28;20053;-84
2022/03/28 08:42:12;;;;;;;26.63;13.23;;;7.90;99.90;;;;;;5017358;28;20061;-83
2022/03/28 08:44:39;;;;;;;26.63;14.93;;;8.00;99.90;;;;;;5013249;28;20056;-84
2022/03/28 08:47:05;;;;;;;24.40;13.27;;;8.00;99.90;;;;;;5015085;28;20042;-83
2022/03/28 08:49:31;;;;;;;24.38;12.80;;;8.00;99.90;;;;;;4977859;28;20506;-83
2022/03/28 08:51:57;;;;;;;27.90;14.65;;;8.00;99.90;;;;;;4992938;28;20132;-83
2022/03/28 08:54:23;;;;;;;29.15;15.77;;;8.10;99.90;;;;;;4989321;28;20049;-85
2022/03/28 08:56:48;;;;;;;27.15;15.38;;;8.10;99.90;;;;;;5011099;28;20476;-83
2022/03/28 08:59:14;;;;;;;29.38;14.27;;;8.00;99.90;;;;;;5029667;28;20053;-83
2022/03/28 09:01:41;;;;;;;28.08;14.85;;;8.10;99.90;;;;;;5029381;28;20057;-83
2022/03/28 09:04:08;;;;;;;30.55;15.75;;;8.00;99.90;;;;;;5028864;28;20049;-83
2022/03/28 09:06:38;;;;;;;29.33;14.98;;;8.00;99.90;;;;;;5011739;28;20152;-82
2022/03/28 09:09:12;;;;;;;25.88;14.00;;;8.00;99.90;;;;;;5012526;28;20056;-83
2022/03/28 09:11:42;;;;;;;27.23;14.23;;;8.00;99.90;;;;;;5029534;28;20049;-84
2022/03/28 09:14:11;;;;;;;23.38;13.95;;;8.10;99.90;;;;;;5029100;28;20089;-82
2022/03/28 09:16:37;;;;;;;28.00;14.77;;;8.20;99.90;;;;;;5010798;28;20133;-82
2022/03/28 09:19:09;;;;;;;23.42;14.32;;;8.30;99.90;;;;;;5012975;28;20198;-83
2022/03/28 09:21:36;;;;;;;24.30;13.80;;;8.30;99.90;;;;;;5049430;28;20127;-83
2022/03/28 09:24:04;;;;;;;21.27;12.00;;;8.30;99.90;;;;;;5031896;28;20048;-83
2022/03/28 09:26:30;;;;;;;22.40;13.10;;;8.30;99.90;;;;;;5029489;28;20044;-83
2022/03/28 09:29:00;;;;;;;21.52;12.68;;;8.40;99.90;;;;;;4992670;28;20053;-83
2022/03/28 09:31:39;;;;;;;19.17;12.00;;;8.40;99.90;;;;;;5009098;28;20069;-83
2022/03/28 09:34:12;;;;;;;17.00;10.77;;;8.50;99.90;;;;;;5008884;28;20061;-83
2022/03/28 09:36:57;;;;;;;18.00;11.77;;;8.60;99.90;;;;;;5009302;28;20050;-85
2022/03/28 09:39:32;;;;;;;19.10;10.65;;;8.70;99.90;;;;;;5009187;28;20704;-83
2022/03/28 09:42:03;;;;;;;16.95;10.85;;;8.80;99.90;;;;;;5008813;28;20042;-84
2022/03/28 09:44:45;;;;;;;19.00;10.25;;;9.00;99.90;;;;;;5009089;28;20408;-82
2022/03/28 09:47:17;;;;;;;18.17;11.02;;;9.10;99.90;;;;;;4995822;28;20376;-82
2022/03/28 09:49:45;;;;;;;15.05;10.18;;;9.20;99.90;;;;;;5013716;28;20045;-84
2022/03/28 09:52:19;;;;;;;15.48;10.70;;;9.40;99.90;;;;;;4992985;28;20111;-83
2022/03/28 09:54:56;;;;;;;16.70;10.10;;;9.50;99.90;;;;;;5007930;28;20057;-84
2022/03/28 09:57:33;;;;;;;16.05;10.35;;;9.60;99.90;;;;;;5012782;28;20115;-83
2022/03/28 10:00:19;;;;;;;16.13;9.68;;;9.90;99.90;;;;;;5029342;28;20521;-84
2022/03/28 10:02:46;;;;;;;16.08;9.63;;;10.00;99.90;;;;;;5013039;28;20052;-85
2022/03/28 10:05:12;;;;;;;13.02;8.98;;;10.00;99.90;;;;;;5012830;28;20085;-82
2022/03/28 10:07:38;;;;;;;12.32;8.15;;;10.10;99.80;;;;;;5013092;28;20633;-84
2022/03/28 10:10:05;;;;;;;12.52;8.52;;;10.10;99.10;;;;;;4995684;28;20085;-83
2022/03/28 10:12:31;;;;;;;14.80;9.25;;;10.20;99.00;;;;;;5007837;28;20037;-82
2022/03/28 10:14:58;;;;;;;16.13;10.07;;;10.30;98.40;;;;;;4980210;28;20475;-82
2022/03/28 10:17:25;;;;;;;16.40;8.77;;;10.30;97.90;;;;;;4996141;28;20549;-83
2022/03/28 10:19:51;;;;;;;12.63;9.07;;;10.30;97.60;;;;;;5045668;28;20049;-83
2022/03/28 10:22:41;;;;;;;17.45;9.77;;;10.20;97.20;;;;;;5020241;28;20045;-82
2022/03/28 10:25:16;;;;;;;13.27;9.10;;;10.30;97.20;;;;;;5015096;28;20342;-82
2022/03/28 10:27:42;;;;;;;16.35;10.07;;;10.40;97.30;;;;;;5015936;28;20054;-83
2022/03/28 10:30:22;;;;;;;16.85;9.77;;;10.60;97.40;;;;;;5015672;28;20061;-83
2022/03/28 10:33:08;;;;;;;16.13;10.07;;;10.70;97.20;;;;;;5022668;28;20058;-85
2022/03/28 10:35:33;;;;;;;15.03;9.80;;;10.80;96.80;;;;;;5012525;28;20050;-83
2022/03/28 10:38:17;;;;;;;18.00;9.82;;;10.90;96.40;;;;;;5012014;28;20681;-83
2022/03/28 10:41:00;;;;;;;15.90;9.10;;;10.90;95.50;;;;;;5012346;28;20042;-83
2022/03/28 10:43:32;;;;;;;16.58;12.15;;;11.00;95.60;;;;;;4996983;28;20038;-82
2022/03/28 10:46:03;;;;;;;15.00;9.43;;;11.10;95.30;;;;;;5012191;28;20045;-82
2022/03/28 10:48:48;;;;;;;14.35;10.07;;;11.20;95.30;;;;;;4996350;28;20041;-82
2022/03/28 10:51:21;;;;;;;14.00;8.85;;;11.30;94.70;;;;;;4995846;28;20041;-82
2022/03/28 10:53:51;;;;;;;14.02;9.65;;;11.30;94.50;;;;;;5002090;28;20049;-83
2022/03/28 10:56:20;;;;;;;14.68;9.85;;;11.40;94.60;;;;;;4996500;28;20145;-83
2022/03/28 10:58:54;;;;;;;23.25;18.58;;;11.40;94.30;;;;;;4995658;28;20068;-83
2022/03/28 11:01:20;;;;;;;14.50;10.40;;;11.50;93.70;;;;;;4995913;28;20057;-83
2022/03/28 11:03:55;;;;;;;15.93;10.75;;;11.50;93.40;;;;;;4995577;28;20057;-83
2022/03/28 11:06:41;;;;;;;11.63;9.55;;;11.50;93.30;;;;;;5010948;28;20053;-82
2022/03/28 11:09:07;;;;;;;13.90;10.18;;;11.70;93.20;;;;;;5014456;28;20065;-82
2022/03/28 11:11:33;;;;;;;13.32;9.52;;;11.90;93.10;;;;;;5015248;28;20049;-83
2022/03/28 11:14:12;;;;;;;11.90;9.52;;;12.20;92.30;;;;;;5031110;28;20081;-84
2022/03/28 11:16:56;;;;;;;13.05;9.63;;;12.50;91.50;;;;;;5026818;28;20045;-83
2022/03/28 11:19:33;;;;;;;13.15;10.18;;;12.80;90.90;;;;;;5031409;28;20099;-83
2022/03/28 11:22:08;;;;;;;13.95;9.98;;;12.90;90.40;;;;;;5014481;28;20084;-83
2022/03/28 11:24:45;;;;;;;12.23;9.88;;;13.00;89.70;;;;;;5014725;28;20037;-82
2022/03/28 11:27:13;;;;;;;13.38;10.07;;;13.10;88.20;;;;;;5030343;28;20060;-82
2022/03/28 11:29:40;;;;;;;13.82;10.10;;;13.30;88.00;;;;;;5031277;28;20139;-82
2022/03/28 11:32:11;;;;;;;14.02;10.65;;;13.50;87.00;;;;;;5030482;28;20518;-82
2022/03/28 11:34:37;;;;;;;12.20;9.32;;;13.70;85.50;;;;;;5015002;28;20057;-82
2022/03/28 11:37:04;;;;;;;14.10;10.40;;;13.80;85.20;;;;;;5012513;28;20084;-83
2022/03/28 11:39:32;;;;;;;14.55;10.23;;;13.70;84.60;;;;;;5031140;28;20126;-82
2022/03/28 11:42:03;;;;;;;13.52;9.82;;;13.90;84.60;;;;;;5030312;28;20115;-82
2022/03/28 11:44:34;;;;;;;15.35;10.02;;;14.10;82.60;;;;;;5030779;28;20034;-82
2022/03/28 11:47:04;;;;;;;14.02;10.32;;;14.20;81.00;;;;;;5029045;28;20473;-84
2022/03/28 11:49:29;;;;;;;13.70;10.13;;;14.00;80.10;;;;;;5014724;28;20073;-82
2022/03/28 11:52:02;;;;;;;13.02;10.43;;;13.90;80.60;;;;;;4994714;28;20159;-85
2022/03/28 11:54:29;;;;;;;13.02;10.23;;;14.40;80.70;;;;;;5023681;28;20111;-82
2022/03/28 11:59:41;;;;;;;13.38;10.00;;;16.30;77.90;;;;;;4998990;28;20143;-84
2022/03/28 12:02:08;;;;;;;13.20;9.77;;;18.60;72.50;;;;;;5010419;28;20180;-83
2022/03/28 12:04:44;;;;;;;14.07;10.25;;;20.00;64.30;;;;;;4994141;28;20050;-83
2022/03/28 12:07:10;;;;;;;12.30;9.32;;;20.60;59.20;;;;;;4993578;28;20525;-84
2022/03/28 12:09:41;;;;;;;12.40;9.05;;;21.30;56.90;;;;;;4988630;28;20089;-83
2022/03/28 12:12:08;;;;;;;10.18;9.18;;;21.90;53.70;;;;;;5029490;28;20410;-83
2022/03/28 12:14:34;;;;;;;11.57;8.93;;;22.20;52.00;;;;;;5013850;28;20041;-83
2022/03/28 12:17:00;;;;;;;11.55;9.27;;;22.90;50.50;;;;;;5029281;28;20191;-84
2022/03/28 12:19:28;;;;;;;12.10;9.38;;;23.60;48.30;;;;;;5006417;28;20057;-84
2022/03/28 12:21:56;;;;;;;10.40;9.30;;;23.90;47.10;;;;;;4993239;28;20060;-84
2022/03/28 12:24:25;;;;;;;11.23;9.20;;;24.30;45.00;;;;;;5009999;28;20089;-84
2022/03/28 12:26:53;;;;;;;11.52;9.95;;;24.50;43.50;;;;;;5010323;28;20071;-82
2022/03/28 12:29:19;;;;;;;11.52;9.30;;;24.20;42.90;;;;;;4977257;28;20901;-85
2022/03/28 12:31:47;;;;;;;11.90;9.75;;;24.00;43.20;;;;;;5011021;28;20064;-83
2022/03/28 12:34:14;;;;;;;12.45;10.70;;;24.20;43.00;;;;;;5009595;28;20188;-83
2022/03/28 12:36:40;;;;;;;13.68;9.70;;;24.30;42.90;;;;;;5009828;28;20064;-83
2022/03/28 12:39:08;;;;;;;11.63;9.35;;;24.80;42.00;;;;;;5009465;28;20053;-82
2022/03/28 12:41:41;;;;;;;11.10;9.85;;;25.20;40.70;;;;;;5001957;28;20490;-84
2022/03/28 12:44:21;;;;;;;10.65;9.52;;;25.50;38.00;;;;;;5026916;28;20052;-83
2022/03/28 12:46:47;;;;;;;10.85;9.68;;;25.00;38.10;;;;;;5029620;28;20052;-84